createdAt,value
2022-08-11T00:09:01.294Z,47.49
2022-08-11T00:19:02.622Z,48.39
2022-08-11T00:29:03.976Z,49.79
2022-08-11T00:39:05.371Z,51.38
2022-08-11T00:49:07.105Z,51.72
2022-08-11T00:59:34.177Z,50.93
2022-08-11T01:09:30.350Z,49.69
2022-08-11T01:19:31.697Z,49.73
2022-08-11T01:29:33.028Z,51.46
2022-08-11T01:39:34.471Z,49.68
2022-08-11T01:50:08.447Z,49.55
2022-08-11T01:59:57.145Z,49.48
2022-08-11T02:09:58.478Z,52.67
2022-08-11T02:20:19.186Z,56.97
2022-08-11T02:30:20.747Z,56.56
2022-08-11T02:40:22.092Z,55.50
2022-08-11T02:50:23.417Z,56.02
2022-08-11T03:00:24.828Z,58.19
2022-08-11T03:10:26.223Z,59.55
2022-08-11T03:20:37.846Z,60.96
2022-08-11T03:30:39.735Z,60.70
2022-08-11T03:40:59.756Z,62.68
2022-08-11T03:51:01.497Z,63.02
2022-08-11T04:01:02.811Z,62.36
2022-08-11T04:11:04.119Z,62.99
2022-08-11T04:21:05.462Z,60.95
2022-08-11T04:31:06.819Z,61.40
2022-08-11T04:41:14.456Z,61.26
2022-08-11T04:51:34.747Z,61.61
2022-08-11T05:01:42.533Z,60.61
2022-08-11T05:11:45.066Z,60.18
2022-08-11T05:22:05.402Z,59.30
2022-08-11T05:32:27.020Z,59.08
2022-08-11T05:42:46.960Z,57.58
2022-08-11T05:53:09.119Z,55.96
2022-08-11T06:03:13.248Z,55.08
2022-08-11T06:13:14.581Z,55.30
2022-08-11T06:23:17.981Z,54.29
2022-08-11T06:33:19.346Z,52.41
2022-08-11T06:43:20.704Z,51.16
2022-08-11T06:53:22.096Z,49.70
2022-08-11T07:03:23.469Z,47.74
2022-08-11T07:13:45.374Z,46.39
2022-08-11T07:24:06.104Z,46.15
2022-08-11T07:34:11.147Z,44.48
2022-08-11T07:44:16.648Z,43.96
2022-08-11T07:54:18.413Z,42.97
2022-08-11T08:04:40.131Z,42.14
2022-08-11T08:15:02.410Z,40.67
2022-08-11T08:25:03.760Z,39.63
2022-08-11T08:35:06.061Z,38.78
2022-08-11T08:45:07.468Z,36.42
2022-08-11T08:55:08.815Z,37.51
2022-08-11T09:05:10.172Z,36.97
2022-08-11T09:15:11.978Z,35.36
2022-08-11T09:25:32.239Z,34.39
2022-08-11T09:35:33.593Z,32.56
2022-08-11T09:45:40.453Z,32.50
2022-08-11T09:55:41.972Z,33.16
2022-08-11T10:06:07.283Z,32.08
2022-08-11T10:16:15.842Z,33.36
2022-08-11T10:26:36.922Z,28.50
2022-08-11T10:36:43.204Z,29.82
2022-08-11T10:47:03.260Z,28.71
2022-08-11T10:57:23.671Z,26.28
2022-08-11T11:07:25.025Z,25.72
2022-08-11T11:17:26.334Z,25.34
2022-08-11T11:27:27.619Z,26.28
2022-08-11T11:37:28.959Z,24.16
2022-08-11T11:47:30.224Z,24.00
2022-08-11T11:57:58.998Z,24.53
2022-08-11T12:08:22.396Z,23.83
2022-08-11T12:18:25.908Z,24.11
2022-08-11T12:28:29.162Z,22.31
2022-08-11T12:38:30.668Z,23.27
2022-08-11T12:48:59.472Z,22.29
2022-08-11T12:59:21.257Z,22.01
2022-08-11T13:09:24.078Z,21.50
2022-08-11T13:19:25.432Z,21.84
2022-08-11T13:29:26.793Z,21.10
2022-08-11T13:39:28.280Z,21.87
2022-08-11T13:49:29.646Z,21.15
2022-08-11T13:59:31.577Z,21.88
2022-08-11T14:09:32.966Z,21.26
2022-08-11T14:19:34.283Z,22.06
2022-08-11T14:29:48.687Z,21.53
2022-08-11T14:39:50.257Z,21.66
2022-08-11T14:50:09.324Z,21.54
2022-08-11T15:00:13.045Z,21.15
2022-08-11T15:10:15.029Z,21.78
2022-08-11T15:20:35.388Z,20.67
2022-08-11T15:30:55.567Z,21.03
2022-08-11T15:41:15.655Z,21.52
2022-08-11T15:51:17.131Z,20.37
2022-08-11T16:01:37.316Z,20.30
2022-08-11T16:11:38.773Z,20.96
2022-08-11T16:21:43.032Z,21.41
2022-08-11T16:32:04.329Z,20.39
2022-08-11T16:43:08.476Z,20.65
2022-08-11T16:52:45.852Z,21.59
2022-08-11T17:03:06.085Z,21.09
2022-08-11T17:13:10.277Z,21.73
2022-08-11T17:23:31.874Z,22.19
2022-08-11T17:33:51.985Z,22.48
2022-08-11T17:44:11.763Z,22.88
2022-08-11T17:54:31.776Z,23.16
2022-08-11T18:04:33.108Z,23.63
2022-08-11T18:14:53.343Z,24.35
2022-08-11T18:25:13.264Z,24.93
2022-08-11T18:35:33.392Z,25.40
2022-08-11T18:46:06.241Z,26.01
2022-08-11T18:56:26.816Z,26.85
2022-08-11T19:06:47.772Z,28.33
2022-08-11T19:17:07.649Z,29.21
2022-08-11T19:27:27.634Z,29.50
2022-08-11T19:37:47.458Z,29.92
2022-08-11T19:48:30.726Z,30.48
2022-08-11T19:58:47.348Z,31.19
2022-08-11T20:09:07.585Z,32.20
2022-08-11T20:19:54.762Z,32.36
2022-08-11T20:30:07.487Z,33.29
2022-08-11T20:40:27.610Z,36.66
2022-08-11T20:50:47.621Z,36.47
2022-08-11T21:01:07.834Z,37.42
2022-08-11T21:11:40.188Z,38.74
2022-08-11T21:22:05.699Z,39.13
2022-08-11T21:32:25.995Z,39.47
2022-08-11T21:42:45.881Z,40.21
2022-08-11T21:53:05.740Z,41.26
2022-08-11T22:03:25.877Z,41.86
2022-08-11T22:14:00.732Z,42.82
2022-08-11T22:24:30.176Z,43.74
2022-08-11T22:34:53.234Z,44.55
2022-08-11T22:45:13.733Z,46.04
2022-08-11T22:55:33.768Z,45.98
2022-08-11T23:05:53.821Z,48.37
2022-08-11T23:16:13.789Z,49.12
2022-08-11T23:26:33.710Z,48.82
2022-08-11T23:36:53.638Z,49.83
2022-08-11T23:47:13.520Z,49.66
2022-08-11T23:57:33.544Z,48.48
